Arbuckle, California
Current Conditions -  °F | °C
As of 8:13 AM on Thursday 29 Jan 2015 (Local Time) from KMYV Reporting Station
Haze Haze  
Wind Chill: 44°   Ceiling: Unl
Heat Index: 44°   Visibility: 3mi
Dew Point: 42°   Wind: 0mph
Humidity: 93%   Direction: NA
Pressure: 30.17"   Gusts: NA
Location:  39.02°N, 122.06°W
Report Text: KMYV 291613Z AUTO 00000KT 3SM BR CLR 07/06 A3017 RMK AO2 T00670056
Loading
Personal Weather Stations






























Interactive Weather Map New forecast layout! Learn more

10-Day Weather Forecast

Advertisements
Track Severe Weather on mobile